• Join FlightAware (Why Join?)
  • Login
  • US Flag 
03:43PM EST


 

Airport Tracker/Info


-or-


 

Live Flight TrackerFlight Track Log ✈ SWA718 ✈ 18-Apr-2013 ✈ KHOU - KMCO

Flight Track Log - Related Links

Times and Time Zones

All times are in EDT time to prevent confusion due to time zone crossing. See the SWA718 flight status page for this flight to view local times or setup timezone preferences in your user account.

Time Position Orientation Groundspeed Altitude Reporting Facility
EDT Latitude Longitude Course Direction KTS MPH feet Rate Location/Type
05:57PM 29.6544 -95.2917 77° East 140 161 1,100  Level Houston Center
05:58PM 29.6644 -95.2400 77° East 275 316 3,800 2,043 Climbing Houston Center
05:59PM 29.6547 -95.2342 152° Southeast 282 325 4,300 3,934 Climbing Houston Center
05:59PM 29.5958 -95.2242 172° South 246 283 7,800 4,258 Climbing Houston Center
06:00PM 29.5728 -95.2153 161° South 262 302 8,700 2,747 Climbing Houston Center
06:01PM 29.5669 -95.1236 94° East 320 368 11,600 2,952 Climbing Houston Center
06:02PM 29.5939 -94.9939 77° East 351 404 14,800 2,640 Climbing Houston Center
06:03PM 29.6167 -94.8794 77° East 364 419 17,100 1,742 Climbing Houston Center
06:04PM 29.6425 -94.7444 78° East 416 479 18,400 1,756 Climbing Houston Center
06:05PM 29.6708 -94.5986 77° East 458 527 20,700 2,016 Climbing Houston Center
06:06PM 29.7003 -94.4481 77° East 478 550 22,600 1,776 Climbing Houston Center
06:07PM 29.7147 -94.2878 84° East 515 593 24,400 1,645 Climbing Houston Center
06:08PM 29.6925 -94.0894 97° East 524 603 26,000 1,597 Climbing Houston Center
06:09PM 29.6856 -93.9161 93° East 545 627 27,700 1,839 Climbing Houston Center
06:10PM 29.6836 -93.7428 91° East 546 628 29,800 1,887 Climbing Houston Center
06:11PM 29.6814 -93.5692 91° East 545 627 31,600 1,790 Climbing Houston Center
06:12PM 29.6781 -93.3958 91° East 545 627 33,500 1,742 Climbing Houston Center
06:13PM 29.6761 -93.2111 91° East 539 620 35,200 1,123 Climbing Houston Center
06:15PM 29.6680 -93.0442 93° East  Level FlightAware Approximate
06:15PM 29.6697 -92.8378 93° East 534 615 37,000  Level Houston Center
06:16PM 29.6672 -92.6706 91° East 528 608 37,000  Level Houston Center
06:17PM 29.6647 -92.5031 91° East 527 606 37,000  Level Houston Center
06:18PM 29.6547 -92.3375 94° East 524 603 37,000  Level Houston Center
06:20PM 29.6222 -92.1750 103° East 521 600 37,000  Level Houston Center
06:21PM 29.5825 -91.9817 103° East 522 601 37,000 240 Level Houston Center
06:22PM 29.5478 -91.8214 104° East 521 600 37,500 823 Climbing Houston Center
06:23PM 29.5194 -91.6803 103° East 518 596 38,700 726 Climbing Houston Center
06:24PM 29.4789 -91.4903 104° East 514 592 39,000 145 Climbing Houston Center
06:25PM 29.4453 -91.3339 104° East 509 586 39,000  Level Houston Center
06:26PM 29.4114 -91.1772 104° East 508 585 39,000  Level Houston Center
06:27PM 29.3789 -91.0214 103° East 506 582 39,000  Level Houston Center
06:28PM 29.3442 -90.8653 104° East 507 583 39,000  Level Houston Center
06:29PM 29.3028 -90.6794 104° East 505 581 39,000  Level Houston Center
06:30PM 29.2689 -90.5242 104° East 504 580 39,000  Level Houston Center
06:31PM 29.2333 -90.3706 105° East 503 579 39,000  Level Houston Center
06:32PM 29.1953 -90.2167 106° East 505 581 39,000  Level Houston Center
06:33PM 29.1581 -90.0644 106° East 501 577 39,000  Level Houston Center
06:34PM 29.1128 -89.8825 106° East 499 574 39,000  Level Houston Center
06:35PM 29.0744 -89.7278 106° East 505 581 39,000  Level Houston Center
06:36PM 29.0369 -89.5756 106° East 504 580 39,000  Level Houston Center
06:37PM 28.9997 -89.4233 106° East 501 577 39,000  Level Houston Center
06:38PM 28.9603 -89.2700 106° East 504 580 39,000  Level Houston Center
06:39PM 28.9144 -89.0881 106° East 502 578 39,000  Level Houston Center
06:40PM 28.8769 -88.9361 106° East 501 577 39,000  Level Houston Center
06:41PM 28.8375 -88.7842 106° East 501 577 39,000  Level Houston Center
06:42PM 28.7986 -88.6336 106° East 500 575 39,000  Level Houston Center
06:43PM 28.7603 -88.4828 106° East 498 573 39,000  Level Houston Center
06:44PM 28.7217 -88.3311 106° East 500 575 39,000  Level Houston Center
06:45PM 28.6744 -88.1517 107° East 495 570 39,000  Level Houston Center
06:46PM 28.6356 -87.9986 106° East 498 573 39,000  Level Houston Center
06:47PM 28.5958 -87.8503 107° East 497 572 39,000  Level Houston Center
06:49PM 28.5581 -87.7031 106° East 489 563 39,000  Level Houston Center
06:49PM 28.5142 -87.5508 108° East 477 549 39,000  Level Jacksonville Center
06:50PM 28.4817 -87.4078 104° East 483 556 39,000  Level Jacksonville Center
06:51PM 28.4450 -87.2644 106° East 483 556 39,000  Level Jacksonville Center
06:52PM 28.4019 -87.1139 108° East 489 563 39,000  Level Jacksonville Center
06:53PM 28.3608 -86.9661 108° East 489 563 39,000  Level Jacksonville Center
06:54PM 28.3175 -86.8133 108° East 489 563 39,000  Level Jacksonville Center
06:55PM 28.2803 -86.6658 106° East 489 563 39,000  Level Jacksonville Center
06:56PM 28.2367 -86.5111 108° East 494 568 39,000  Level Jacksonville Center
06:57PM 28.1969 -86.3661 107° East 487 560 39,000  Level Jacksonville Center
06:58PM 28.1550 -86.2211 108° East 487 560 39,000  Level Jacksonville Center
06:59PM 28.1147 -86.0761 107° East 480 552 39,000  Level Jacksonville Center
07:00PM 28.0786 -85.9269 105° East 486 559 39,000  Level Jacksonville Center
07:01PM 28.0531 -85.7756 101° East 486 559 39,000  Level Jacksonville Center
07:02PM 28.0269 -85.6269 101° East 477 549 39,000  Level Jacksonville Center
07:03PM 28.0028 -85.4875 101° East 482 555 39,000  Level Jacksonville Center
07:06PM 27.9422 -85.1519 101° East 504 580 39,000  Level Miami Center
07:07PM 27.9297 -85.0058 95° East 486 559 39,000  Level Miami Center
07:08PM 27.9192 -84.8619 95° East 486 559 39,000  Level Miami Center
07:09PM 27.9106 -84.7136 94° East 486 559 39,000 -500 Level Miami Center
07:10PM 27.9039 -84.5653 93° East 480 552 38,000 -2,000 Descending Miami Center
07:11PM 27.9036 -84.4175 90° East 480 552 35,000 -2,650 Descending Miami Center
07:12PM 27.8950 -84.2619 94° East 485 558 32,700 -1,850 Descending Miami Center
07:13PM 27.8883 -84.1044 93° East 490 564 31,300 -850 Descending Miami Center
07:14PM 27.8858 -83.9494 91° East 495 570 31,000 -150 Descending Miami Center
07:15PM 27.8786 -83.7964 93° East 495 570 31,000 -200 Level Miami Center
07:16PM 27.8719 -83.6317 93° East 495 570 30,600 -1,550 Descending Miami Center
07:17PM 27.8664 -83.4789 92° East 495 570 27,900 -2,600 Descending Miami Center
07:18PM 27.8586 -83.3306 93° East 482 555 25,400 -2,450 Descending Miami Center
07:19PM 27.8567 -83.1850 91° East 475 547 23,000 -1,500 Descending Miami Center
07:20PM 27.8481 -83.0483 94° East 455 524 22,400 -800 Descending Miami Center
07:21PM 27.8414 -82.9119 93° East 442 509 21,400 -950 Descending Miami Center
07:22PM 27.8383 -82.7850 92° East 442 509 20,500 -950 Descending Miami Center
07:23PM 27.8289 -82.6556 95° East 432 497 19,500 -1,000 Descending Miami Center
07:24PM 27.8297 -82.5314 90° East 417 480 18,500 -1,050 Descending Miami Center
07:25PM 27.8642 -82.4017 73° East 377 434 17,400 -1,050 Descending Miami Center
07:26PM 27.9019 -82.2858 70° East 382 440 16,400 -889 Descending Miami Center
07:27PM 27.9667 -82.0833 70° East 385 443 15,000 -481 Descending Orlando TRACON
07:28PM 28.0000 -81.9833 69° East 381 438 15,100 50 Climbing Orlando TRACON
07:29PM 28.0500 -81.8667 64° Northeast 383 441 15,100 -417 Level Orlando TRACON
07:30PM 28.1000 -81.7833 56° Northeast 382 440 14,300 -950 Descending Orlando TRACON
07:31PM 28.1667 -81.6667 57° Northeast 369 425 13,200 -1,650 Descending Orlando TRACON
07:32PM 28.2167 -81.5833 56° Northeast 361 415 11,000 -1,550 Descending Orlando TRACON
07:33PM 28.2833 -81.5000 48° Northeast 316 364 10,100 -1,238 Descending Orlando TRACON
07:34PM 28.3333 -81.4333 50° Northeast 301 346 8,400 -1,636 Descending Orlando TRACON
07:35PM 28.4167 -81.4167 10° North 296 341 6,800 -1,190 Descending Orlando TRACON
07:36PM 28.5000 -81.4167 360° North 258 297 5,900 -714 Descending Orlando TRACON
07:37PM 28.5667 -81.4167 360° North 227 261 5,300 -850 Descending Orlando TRACON
07:38PM 28.6333 -81.4167 360° North 213 245 4,200 -1,000 Descending Orlando TRACON
07:39PM 28.6667 -81.3667 53° Northeast 207 238 3,300 -800 Descending Orlando TRACON
07:40PM 28.6333 -81.3333 139° Southeast 194 223 2,600 -421 Descending Orlando TRACON
07:41PM 28.5833 -81.3000 150° Southeast 191 220 2,500 -316 Descending Orlando TRACON
07:42PM 28.5333 -81.3000 180° South 166 191 2,000 -500 Descending Orlando TRACON